Lynwood, Idaho
Current Conditions -  °F | °C
As of 6:53 PM on Tuesday 21 Oct 2014 (Local Time) from KTWF Reporting Station
Clear Clear  
Wind Chill: 42°   Ceiling: Unl
Heat Index: 46°   Visibility: 10mi
Dew Point: 35°   Wind: 7mph
Humidity: 66%   Direction: 260°W
Pressure: 30.08"   Gusts: NA
Location:  42.2444°N, 114.662°W
Report Text: KTWF 220053Z AUTO 26006KT 10SM CLR 08/02 A3008 RMK AO2 SLP169 T00780017
Loading
Personal Weather Stations






























Interactive Weather Map
Tropical Storm Tracking
New forecast layout! Learn more

10-Day Weather Forecast

Advertisements
Track Severe Weather on mobile